Time;durP1;ratioP1;P1;durP2;ratioP2;P2;SDS_P1;SDS_P2;PMS_P1;PMS_P2;Temp;Humidity;BMP_temperature;BMP_pressure;BME280_temperature;BME280_humidity;BME280_pressure;Samples;Min_cycle;Max_cycle;Signal;HPM_P1;HPM_P2
2022/05/07 00:02:12;;;;;;;31.85;22.02;;;;;;;11.25;67.87;101266.20;1649636;86;26513;-78
2022/05/07 00:04:39;;;;;;;35.78;22.00;;;;;;;11.21;67.83;101263.55;1649722;86;25896;-78
2022/05/07 00:07:06;;;;;;;38.67;22.15;;;;;;;11.18;67.95;101267.94;1649796;86;28781;-78
2022/05/07 00:09:35;;;;;;;38.73;23.38;;;;;;;11.15;67.94;101268.77;1649879;86;25758;-78
2022/05/07 00:12:02;;;;;;;37.42;22.32;;;;;;;11.11;68.05;101265.61;1649811;86;26448;-78
2022/05/07 00:14:28;;;;;;;42.98;22.73;;;;;;;11.07;68.26;101263.45;1649704;86;26465;-78
2022/05/07 00:19:39;;;;;;;30.32;19.85;;;;;;;10.97;68.43;101264.97;1649292;86;27532;-78
2022/05/07 00:22:05;;;;;;;31.27;20.00;;;;;;;10.89;68.79;101267.69;1649590;85;25802;-78
2022/05/07 00:24:31;;;;;;;28.23;18.95;;;;;;;10.84;68.77;101260.69;1649995;86;25301;-78
2022/05/07 00:26:58;;;;;;;31.77;20.97;;;;;;;10.78;68.84;101266.22;1649898;86;26735;-78
2022/05/07 00:29:24;;;;;;;25.23;18.62;;;;;;;10.73;68.93;101264.55;1649989;86;25816;-78
2022/05/07 00:31:50;;;;;;;25.70;18.23;;;;;;;10.68;69.30;101265.58;1649430;86;27391;-79
2022/05/07 00:34:16;;;;;;;29.60;17.60;;;;;;;10.64;69.22;101258.90;1649463;86;26472;-78
2022/05/07 00:36:43;;;;;;;25.15;18.90;;;;;;;10.63;69.34;101266.59;1675300;84;25924;-78
2022/05/07 00:39:09;;;;;;;31.10;17.67;;;;;;;10.64;69.35;101264.75;1668471;84;25747;-78
2022/05/07 00:41:40;;;;;;;30.00;19.98;;;;;;;10.65;69.62;101267.25;1653816;84;26537;-79
2022/05/07 00:44:06;;;;;;;36.10;19.98;;;;;;;10.65;69.62;101263.73;1690824;83;27448;-78
2022/05/07 00:46:32;;;;;;;34.95;20.40;;;;;;;10.64;69.85;101266.94;1684251;85;26490;-78
2022/05/07 00:49:01;;;;;;;31.48;20.20;;;;;;;10.61;69.93;101261.06;1648967;86;25948;-77
2022/05/07 00:51:33;;;;;;;31.30;21.07;;;;;;;10.58;69.80;101262.77;1649236;86;26574;-79
2022/05/07 00:54:08;;;;;;;33.70;20.23;;;;;;;10.55;69.92;101267.11;1649889;85;25994;-78
2022/05/07 00:56:37;;;;;;;35.98;21.30;;;;;;;10.51;70.18;101261.77;1649870;86;26919;-78
2022/05/07 00:59:06;;;;;;;32.83;18.73;;;;;;;10.46;70.55;101262.77;1650070;86;25863;-78
2022/05/07 01:01:32;;;;;;;27.77;18.92;;;;;;;10.43;70.83;101255.93;1649902;86;25797;-77
2022/05/07 01:04:00;;;;;;;30.32;19.82;;;;;;;10.42;70.68;101259.59;1649711;85;26282;-78
2022/05/07 01:06:30;;;;;;;30.97;19.35;;;;;;;10.40;70.73;101262.11;1604806;86;25975;-78
2022/05/07 01:08:57;;;;;;;31.87;20.72;;;;;;;10.37;70.63;101263.80;1650305;86;27442;-78
2022/05/07 01:11:25;;;;;;;36.08;21.37;;;;;;;10.37;70.64;101262.46;1649692;86;26407;-78
2022/05/07 01:13:53;;;;;;;36.63;21.23;;;;;;;10.36;70.50;101262.11;1649349;85;25904;-78
2022/05/07 01:16:20;;;;;;;33.42;20.30;;;;;;;10.35;70.44;101258.59;1649484;86;26533;-78
2022/05/07 01:18:46;;;;;;;37.58;22.32;;;;;;;10.36;70.40;101260.28;1649913;86;25884;-78
2022/05/07 01:21:17;;;;;;;36.85;21.85;;;;;;;10.30;70.30;101258.78;1649920;86;28551;-78
2022/05/07 01:23:49;;;;;;;32.30;20.72;;;;;;;10.25;70.15;101255.77;1639865;85;25591;-77
2022/05/07 01:26:20;;;;;;;;;;;;;;;10.22;70.19;101256.95;1652353;86;26047;-77
2022/05/07 01:28:44;;;;;;;36.93;20.10;;;;;;;10.19;70.23;101252.42;1649949;86;26573;-77
2022/05/07 01:31:10;;;;;;;28.12;20.00;;;;;;;10.15;70.37;101249.26;1650065;86;26491;-77
2022/05/07 01:33:38;;;;;;;30.25;18.87;;;;;;;10.16;70.56;101244.22;1650191;85;27442;-77
2022/05/07 01:36:10;;;;;;;30.47;19.97;;;;;;;10.15;70.60;101243.06;1650158;85;25887;-77
2022/05/07 01:38:36;;;;;;;34.67;20.70;;;;;;;10.12;70.73;101243.37;1650213;86;26431;-77
2022/05/07 01:41:03;;;;;;;35.45;20.77;;;;;;;10.09;70.86;101239.20;1649956;86;26585;-78
2022/05/07 01:43:33;;;;;;;32.03;19.67;;;;;;;10.07;70.77;101244.70;1650043;85;25810;-78
2022/05/07 01:46:01;;;;;;;38.48;21.05;;;;;;;10.00;70.79;101256.25;1650161;86;28221;-78
2022/05/07 01:48:28;;;;;;;32.70;20.15;;;;;;;9.77;70.58;101240.52;1650040;86;26096;-77
2022/05/07 01:50:55;;;;;;;32.28;21.25;;;;;;;9.68;71.06;101237.00;1650348;86;25970;-77
2022/05/07 01:53:23;;;;;;;33.73;20.97;;;;;;;9.67;71.29;101235.80;1649377;85;25756;-77
2022/05/07 01:55:50;;;;;;;41.02;22.05;;;;;;;9.65;71.16;101244.00;1641241;86;26441;-77
2022/05/07 01:58:18;;;;;;;32.00;20.75;;;;;;;9.63;71.23;101241.16;1650121;86;27525;-78
2022/05/07 02:00:44;;;;;;;31.52;19.17;;;;;;;9.62;71.22;101236.33;1649925;86;25365;-77
2022/05/07 02:03:11;;;;;;;33.38;19.98;;;;;;;9.57;71.05;101237.31;1663853;85;25861;-78
2022/05/07 02:05:37;;;;;;;37.73;23.07;;;;;;;9.57;71.04;101235.98;1660637;85;25844;-77
2022/05/07 02:08:05;;;;;;;36.15;21.95;;;;;;;9.58;71.29;101236.82;1650196;86;26000;-78
2022/05/07 02:10:32;;;;;;;35.58;21.60;;;;;;;9.59;71.17;101231.79;1649786;85;27472;-78
2022/05/07 02:13:01;;;;;;;36.03;21.65;;;;;;;9.58;71.24;101231.47;1664496;85;25910;-78
2022/05/07 02:15:27;;;;;;;33.28;21.30;;;;;;;9.54;71.41;101221.58;1660801;85;25533;-77
2022/05/07 02:17:56;;;;;;;36.73;19.92;;;;;;;9.50;71.16;101219.41;1659019;85;25857;-77
2022/05/07 02:20:23;;;;;;;29.75;19.82;;;;;;;9.42;71.18;101224.25;1649841;85;25844;-78
2022/05/07 02:22:57;;;;;;;30.32;20.17;;;;;;;9.34;71.31;101237.08;1649138;85;27450;-77
2022/05/07 02:25:24;;;;;;;28.92;19.50;;;;;;;9.24;71.15;101232.38;1649170;85;25892;-78
2022/05/07 02:27:53;;;;;;;30.12;19.75;;;;;;;9.13;71.41;101237.20;1649102;85;25852;-77
2022/05/07 02:30:20;;;;;;;27.37;18.85;;;;;;;9.08;71.66;101235.02;1649776;85;26340;-77
2022/05/07 02:32:47;;;;;;;32.10;19.67;;;;;;;8.95;71.70;101243.98;1649461;85;25809;-77
2022/05/07 02:35:16;;;;;;;32.88;19.98;;;;;;;8.94;71.92;101240.14;1649626;85;27620;-78
2022/05/07 02:37:42;;;;;;;29.25;20.30;;;;;;;8.93;71.95;101240.64;1649309;85;25975;-77
2022/05/07 02:40:09;;;;;;;32.08;20.52;;;;;;;8.94;71.91;101241.48;1664707;84;25537;-78
2022/05/07 02:42:36;;;;;;;32.78;20.30;;;;;;;8.92;71.74;101239.44;1650609;85;25838;-78
2022/05/07 02:45:10;;;;;;;28.75;20.17;;;;;;;8.91;71.85;101239.11;1643280;85;25744;-77
2022/05/07 02:47:40;;;;;;;33.33;21.27;;;;;;;8.88;71.88;101248.77;1655441;85;28304;-78
2022/05/07 02:50:09;;;;;;;33.20;20.30;;;;;;;8.85;71.93;101240.61;1649388;85;26594;-77
2022/05/07 02:52:37;;;;;;;35.75;20.82;;;;;;;8.84;71.98;101247.42;1652322;85;25826;-77
2022/05/07 02:55:06;;;;;;;30.27;20.37;;;;;;;8.86;72.25;101248.09;1648968;86;26429;-78
2022/05/07 02:57:33;;;;;;;31.62;20.82;;;;;;;8.83;72.16;101249.25;1649527;86;25881;-77
2022/05/07 02:59:59;;;;;;;28.85;18.55;;;;;;;8.83;72.42;101248.44;1649937;86;28279;-77
2022/05/07 03:02:26;;;;;;;31.75;20.43;;;;;;;8.84;72.60;101250.94;1624879;86;25842;-77
2022/05/07 03:04:53;;;;;;;36.38;21.65;;;;;;;8.84;72.45;101252.27;1626857;86;25614;-77
2022/05/07 03:07:20;;;;;;;34.60;20.68;;;;;;;8.86;72.61;101254.28;1649612;86;26459;-77
2022/05/07 03:09:47;;;;;;;31.27;19.40;;;;;;;8.87;72.54;101253.30;1649689;85;25816;-78
2022/05/07 03:12:14;;;;;;;31.15;20.72;;;;;;;8.88;72.59;101252.78;1668972;84;27533;-77
2022/05/07 03:14:41;;;;;;;26.42;18.90;;;;;;;8.85;72.53;101247.77;1671124;85;26710;-77
2022/05/07 03:17:08;;;;;;;28.75;18.37;;;;;;;8.86;73.16;101255.62;1665780;85;26669;-77
2022/05/07 03:19:34;;;;;;;30.32;19.60;;;;;;;8.87;72.99;101253.80;1673252;85;26428;-77
2022/05/07 03:22:01;;;;;;;31.12;20.45;;;;;;;8.85;73.01;101259.80;1657485;85;25956;-77
2022/05/07 03:24:29;;;;;;;30.90;18.37;;;;;;;8.86;73.39;101254.28;1649614;85;27476;-78
2022/05/07 03:26:57;;;;;;;30.00;19.32;;;;;;;8.89;73.51;101258.48;1649454;85;25795;-77
2022/05/07 03:29:23;;;;;;;27.65;17.32;;;;;;;8.93;73.83;101265.17;1647544;85;26452;-77
2022/05/07 03:31:51;;;;;;;29.42;18.15;;;;;;;8.96;73.71;101262.19;1649798;85;26007;-77
2022/05/07 03:34:18;;;;;;;25.92;18.20;;;;;;;8.98;74.02;101261.53;1649672;85;26549;-78
2022/05/07 03:36:44;;;;;;;28.70;18.95;;;;;;;9.02;74.29;101260.20;1649337;85;27633;-77
2022/05/07 03:39:15;;;;;;;32.63;19.95;;;;;;;9.05;74.47;101254.52;1651141;85;25844;-77
2022/05/07 03:41:41;;;;;;;30.40;19.32;;;;;;;9.07;74.69;101263.22;1647347;85;25864;-78
2022/05/07 03:44:09;;;;;;;28.83;18.40;;;;;;;9.09;74.68;101262.06;1649426;85;25853;-77
2022/05/07 03:46:36;;;;;;;35.25;20.15;;;;;;;9.15;75.28;101264.09;1652637;85;26415;-77
2022/05/07 03:49:02;;;;;;;26.55;18.90;;;;;;;9.18;75.34;101262.44;1653336;85;27490;-77
2022/05/07 03:53:29;;;;;;;27.02;18.17;;;;;;;9.24;75.57;101264.95;1649453;85;26633;-77
2022/05/07 03:54:03;;;;;;;28.25;17.67;;;;;;;9.29;75.32;101266.65;1643599;85;26101;-78
2022/05/07 03:56:30;;;;;;;28.12;18.60;;;;;;;9.35;75.37;101271.34;1650834;85;26498;-77
2022/05/07 03:58:57;;;;;;;26.70;19.02;;;;;;;9.42;75.42;101272.88;1663953;84;25785;-77
2022/05/07 04:01:28;;;;;;;34.27;18.67;;;;;;;9.46;75.39;101279.07;1651477;85;27649;-77
2022/05/07 04:03:54;;;;;;;30.00;18.73;;;;;;;9.50;75.61;101283.09;1648485;85;26606;-78
2022/05/07 04:06:20;;;;;;;27.58;18.90;;;;;;;9.55;75.57;101282.60;1651715;85;25982;-78
2022/05/07 04:08:47;;;;;;;28.95;19.12;;;;;;;9.56;75.67;101284.30;1652619;85;26670;-77
2022/05/07 04:11:14;;;;;;;27.02;17.92;;;;;;;9.62;75.92;101285.81;1648921;86;26165;-77
2022/05/07 04:13:40;;;;;;;28.17;18.07;;;;;;;9.66;76.01;101282.30;1649323;85;27467;-77
2022/05/07 04:16:06;;;;;;;28.12;19.12;;;;;;;9.70;75.93;101290.33;1649666;86;25807;-77
2022/05/07 04:18:35;;;;;;;30.37;19.98;;;;;;;9.74;76.11;101291.18;1649332;86;25825;-77
2022/05/07 04:21:04;;;;;;;30.57;20.27;;;;;;;9.81;76.30;101288.19;1649144;85;25931;-77
2022/05/07 04:23:30;;;;;;;26.93;18.92;;;;;;;9.87;76.25;101289.36;1649528;86;25802;-78
2022/05/07 04:25:57;;;;;;;31.55;19.23;;;;;;;9.92;76.53;101288.37;1649500;86;27463;-78
2022/05/07 04:28:24;;;;;;;28.40;19.27;;;;;;;9.99;76.46;101293.38;1649566;86;25975;-78
2022/05/07 04:30:51;;;;;;;29.57;18.65;;;;;;;10.07;76.55;101300.91;1649958;85;25892;-77
2022/05/07 04:33:19;;;;;;;25.25;18.52;;;;;;;10.14;76.59;101301.11;1649543;86;26422;-78
2022/05/07 04:35:48;;;;;;;27.67;18.95;;;;;;;10.19;76.69;101304.63;1649663;86;25888;-77
2022/05/07 04:38:14;;;;;;;32.13;18.90;;;;;;;10.23;76.84;101302.80;1649683;86;27450;-77
2022/05/07 04:40:41;;;;;;;26.17;18.17;;;;;;;10.29;77.08;101304.80;1649909;86;26432;-78
2022/05/07 04:43:10;;;;;;;26.10;17.30;;;;;;;10.32;77.22;101309.83;1649664;85;26074;-78
2022/05/07 04:45:36;;;;;;;28.05;18.80;;;;;;;10.39;77.49;101307.31;1649397;86;25842;-77
2022/05/07 04:48:04;;;;;;;25.82;17.75;;;;;;;10.45;77.46;101299.45;1649496;86;26510;-77
2022/05/07 04:50:32;;;;;;;25.70;17.62;;;;;;;10.56;77.74;101303.63;1661606;84;28706;-77
2022/05/07 04:55:26;;;;;;;23.75;16.55;;;;;;;10.75;78.03;101308.11;1790651;79;25732;-77
2022/05/07 04:57:54;;;;;;;23.90;17.00;;;;;;;10.74;77.57;101310.94;1736660;81;25870;-77
2022/05/07 05:00:23;;;;;;;29.50;17.80;;;;;;;10.79;77.93;101313.46;1744931;82;28334;-77
2022/05/07 05:02:54;;;;;;;26.82;17.45;;;;;;;10.87;78.19;101313.94;1734340;82;25810;-77
2022/05/07 05:05:25;;;;;;;24.15;17.60;;;;;;;10.96;78.02;101318.27;1736544;80;25743;-77
2022/05/07 05:07:52;;;;;;;22.60;16.67;;;;;;;11.04;77.85;101318.24;1748736;81;25761;-77
2022/05/07 05:10:19;;;;;;;22.55;16.25;;;;;;;11.14;78.02;101320.73;1732369;81;26323;-77
2022/05/07 05:12:47;;;;;;;24.75;16.32;;;;;;;11.23;77.84;101324.55;1732035;82;27624;-77
2022/05/07 05:15:14;;;;;;;28.60;17.42;;;;;;;11.33;78.11;101328.37;1734972;80;25870;-79
2022/05/07 05:18:00;;;;;;;23.57;16.30;;;;;;;11.44;77.91;101330.16;1722810;82;26446;-78
2022/05/07 05:20:26;;;;;;;23.80;16.17;;;;;;;11.58;77.69;101330.77;1719054;82;26511;-78
2022/05/07 05:23:06;;;;;;;28.12;17.12;;;;;;;11.71;77.66;101335.60;1727756;82;26201;-79
2022/05/07 05:25:34;;;;;;;23.35;16.27;;;;;;;11.84;77.49;101332.34;1732716;82;27424;-79
2022/05/07 05:28:01;;;;;;;20.95;15.08;;;;;;;11.95;77.68;101336.80;1725392;82;25855;-78
2022/05/07 05:30:28;;;;;;;20.60;14.60;;;;;;;12.02;77.13;101334.22;1728985;82;25946;-78
2022/05/07 05:32:56;;;;;;;22.70;14.85;;;;;;;12.09;77.19;101334.69;1730561;82;25489;-78
2022/05/07 05:35:22;;;;;;;23.65;14.75;;;;;;;12.12;76.86;101333.00;1738942;82;25939;-78
2022/05/07 05:37:50;;;;;;;18.48;12.78;;;;;;;12.19;76.72;101332.59;1745132;81;27458;-78
2022/05/07 05:40:18;;;;;;;22.35;13.15;;;;;;;12.25;76.40;101336.42;1744438;81;25883;-78
2022/05/07 05:42:46;;;;;;;19.45;13.43;;;;;;;12.31;76.46;101344.60;1743895;81;25466;-78
2022/05/07 05:45:12;;;;;;;18.80;12.88;;;;;;;12.43;77.07;101336.93;1745091;80;25954;-79
2022/05/07 05:47:41;;;;;;;18.42;11.25;;;;;;;12.60;76.70;101342.49;1738965;81;25960;-78
2022/05/07 05:50:08;;;;;;;17.35;11.28;;;;;;;12.73;76.14;101335.14;1739333;82;27441;-78
2022/05/07 05:52:37;;;;;;;17.85;10.48;;;;;;;12.80;75.84;101342.31;1742519;81;25922;-78
2022/05/07 05:55:05;;;;;;;16.82;10.48;;;;;;;12.86;75.06;101340.23;1746732;80;25942;-78
2022/05/07 05:57:33;;;;;;;19.57;10.90;;;;;;;12.89;74.83;101341.22;1741396;81;26367;-79
2022/05/07 06:00:00;;;;;;;16.90;10.65;;;;;;;12.93;74.05;101345.21;1727247;81;26165;-78
2022/05/07 06:02:28;;;;;;;15.15;10.30;;;;;;;12.93;73.79;101338.48;1752006;81;27636;-78
2022/05/07 06:04:56;;;;;;;15.03;10.68;;;;;;;12.94;73.43;101344.17;1747201;80;26448;-78
2022/05/07 06:07:25;;;;;;;15.45;9.98;;;;;;;13.00;73.48;101345.31;1723039;82;25838;-78
2022/05/07 06:09:53;;;;;;;17.05;9.73;;;;;;;13.12;74.26;101344.70;1751751;81;25770;-78
2022/05/07 06:12:21;;;;;;;13.98;9.63;;;;;;;13.25;73.21;101342.70;1752565;81;25850;-78
2022/05/07 06:14:54;;;;;;;14.55;9.48;;;;;;;13.38;73.23;101349.61;1749600;81;27691;-78
2022/05/07 06:17:22;;;;;;;11.22;8.75;;;;;;;13.50;72.85;101350.80;1734611;81;25738;-79
2022/05/07 06:19:50;;;;;;;13.80;9.13;;;;;;;13.65;73.14;101348.92;1736453;81;25872;-79
2022/05/07 06:22:16;;;;;;;13.40;9.90;;;;;;;13.80;72.35;101352.92;1738923;81;26680;-79
2022/05/07 06:27:31;;;;;;;10.28;6.37;;;;;;;14.03;72.21;101352.25;1743267;81;27468;-78
2022/05/07 06:30:01;;;;;;;9.50;6.17;;;;;;;14.16;70.68;101348.85;1741726;81;26673;-78
2022/05/07 06:32:35;;;;;;;7.70;6.35;;;;;;;14.27;71.06;101345.66;1738403;81;26049;-79
2022/05/07 06:35:05;;;;;;;10.82;5.83;;;;;;;14.39;71.13;101349.02;1742331;81;25854;-78
2022/05/07 06:37:36;;;;;;;8.40;4.90;;;;;;;14.56;69.29;101346.91;1708356;82;26952;-78
2022/05/07 06:40:06;;;;;;;5.53;4.12;;;;;;;14.62;68.92;101347.48;1724393;81;28321;-79
2022/05/07 06:42:34;;;;;;;4.87;3.52;;;;;;;14.71;68.56;101340.08;1750571;81;25832;-79
2022/05/07 06:45:04;;;;;;;3.12;2.62;;;;;;;14.81;67.34;101345.95;1733124;81;25895;-79
2022/05/07 06:47:31;;;;;;;3.95;2.70;;;;;;;14.92;65.57;101339.52;1729001;81;25719;-79
2022/05/07 06:49:58;;;;;;;5.80;2.55;;;;;;;15.00;65.01;101341.22;1734799;81;25849;-78
2022/05/07 06:52:25;;;;;;;3.65;2.77;;;;;;;15.09;64.88;101339.53;1745951;80;28288;-79
2022/05/07 06:54:51;;;;;;;4.17;3.40;;;;;;;15.20;64.58;101343.53;1741679;81;26361;-79
2022/05/07 06:57:18;;;;;;;7.67;4.08;;;;;;;15.27;65.06;101341.69;1733400;81;25361;-79
2022/05/07 06:59:46;;;;;;;6.70;3.62;;;;;;;15.35;64.79;101343.70;1747986;81;25874;-78
2022/05/07 07:02:12;;;;;;;4.95;3.12;;;;;;;15.49;64.78;101348.70;1747571;81;25908;-79
2022/05/07 07:04:38;;;;;;;6.45;3.50;;;;;;;15.57;63.72;101343.66;1747540;81;27462;-79
2022/05/07 07:07:05;;;;;;;5.40;3.80;;;;;;;15.62;63.69;101347.41;1747720;81;25871;-79
2022/05/07 07:09:31;;;;;;;4.60;3.08;;;;;;;15.70;62.80;101351.28;1747395;81;25901;-79
2022/05/07 07:11:58;;;;;;;5.45;2.90;;;;;;;15.74;62.74;101349.03;1747732;81;25727;-79
2022/05/07 07:14:24;;;;;;;3.67;3.10;;;;;;;15.81;63.88;101352.05;1747524;81;25836;-78
2022/05/07 07:16:50;;;;;;;4.35;2.85;;;;;;;15.91;62.79;101353.84;1748054;81;27592;-80
2022/05/07 07:19:16;;;;;;;3.45;2.37;;;;;;;15.98;62.18;101348.47;1747636;81;25881;-79
2022/05/07 07:21:43;;;;;;;3.05;2.40;;;;;;;16.03;60.05;101357.64;1748145;81;25925;-79
2022/05/07 07:24:10;;;;;;;4.85;2.15;;;;;;;16.06;60.69;101354.52;1747848;81;25946;-78
2022/05/07 07:26:36;;;;;;;4.30;2.17;;;;;;;16.13;60.72;101352.67;1748115;81;25747;-79
2022/05/07 07:29:03;;;;;;;3.30;1.95;;;;;;;16.19;60.65;101356.41;1747846;81;27450;-79
2022/05/07 07:31:31;;;;;;;2.62;2.30;;;;;;;16.23;59.84;101354.45;1740565;81;25893;-78
2022/05/07 07:33:57;;;;;;;3.25;2.35;;;;;;;16.31;60.03;101347.19;1755988;81;26478;-79
2022/05/07 07:36:23;;;;;;;2.87;1.82;;;;;;;16.39;59.29;101354.59;1755273;81;25440;-78
2022/05/07 07:38:50;;;;;;;2.10;1.60;;;;;;;16.49;58.83;101344.70;1755594;81;26026;-78
2022/05/07 07:41:17;;;;;;;3.77;1.82;;;;;;;16.54;58.01;101346.30;1755373;81;27437;-79
2022/05/07 07:43:43;;;;;;;2.37;2.17;;;;;;;16.59;57.70;101345.17;1756588;81;25905;-79
2022/05/07 07:48:54;;;;;;;2.55;1.70;;;;;;;16.71;58.02;101345.69;1727359;82;25791;-79
2022/05/07 07:51:20;;;;;;;2.92;1.82;;;;;;;16.79;59.59;101338.70;1758019;80;25962;-78
2022/05/07 07:53:47;;;;;;;3.25;1.90;;;;;;;16.91;58.49;101335.66;1757471;80;27462;-78
2022/05/07 07:56:13;;;;;;;3.92;1.67;;;;;;;16.92;57.24;101341.41;1702829;81;26144;-79
2022/05/07 07:58:39;;;;;;;5.35;1.75;;;;;;;16.95;57.47;101336.09;1711814;82;25781;-79
2022/05/07 08:01:05;;;;;;;2.77;1.47;;;;;;;17.01;56.67;101335.25;1724652;81;25318;-79
2022/05/07 08:03:31;;;;;;;3.62;1.50;;;;;;;17.05;55.62;101345.96;1734200;81;25890;-78
2022/05/07 08:05:58;;;;;;;2.25;1.30;;;;;;;17.07;55.29;101345.74;1733925;81;27629;-79
2022/05/07 08:13:42;;;;;;;1.07;1.02;;;;;;;17.08;53.62;101340.14;1696743;82;25621;-79
2022/05/07 08:16:09;;;;;;;4.35;1.40;;;;;;;17.12;55.56;101335.13;1693813;83;25844;-78
2022/05/07 08:18:37;;;;;;;2.72;1.65;;;;;;;17.23;55.75;101338.54;1721211;83;28306;-79
2022/05/07 08:21:05;;;;;;;2.00;1.20;;;;;;;17.25;54.13;101340.52;1711846;83;25720;-79
2022/05/07 08:23:32;;;;;;;3.22;1.30;;;;;;;17.24;55.43;101343.73;1711398;81;26046;-78
2022/05/07 08:25:58;;;;;;;3.40;1.45;;;;;;;17.32;55.42;101343.50;1708550;83;25671;-79
2022/05/07 08:28:25;;;;;;;2.70;1.80;;;;;;;17.41;54.98;101336.81;1699182;83;25771;-78
2022/05/07 08:30:53;;;;;;;2.58;1.92;;;;;;;17.48;54.37;101337.63;1713669;83;27001;-78
2022/05/07 08:33:26;;;;;;;2.15;1.95;;;;;;;17.55;56.09;101328.16;1689141;80;25336;31
2022/05/07 08:35:52;;;;;;;4.85;2.77;;;;;;;17.65;54.90;101338.01;1635359;86;25800;-76
2022/05/07 08:38:20;;;;;;;3.30;2.47;;;;;;;17.71;56.56;101335.78;1676613;84;25876;-76
2022/05/07 08:40:46;;;;;;;2.67;2.33;;;;;;;17.79;55.35;101339.63;1672212;85;25783;-76
2022/05/07 08:43:15;;;;;;;2.98;2.00;;;;;;;17.85;55.10;101327.08;1641588;84;27464;-77
2022/05/07 08:45:42;;;;;;;4.17;2.83;;;;;;;17.94;55.60;101331.20;1648895;86;26214;-77
2022/05/07 08:48:08;;;;;;;3.25;2.25;;;;;;;18.04;54.06;101336.47;1655991;86;25973;-76
2022/05/07 08:50:35;;;;;;;2.45;1.70;;;;;;;18.04;54.75;101334.27;1649959;86;26582;-76
2022/05/07 08:53:02;;;;;;;2.98;2.08;;;;;;;18.05;54.86;101334.59;1663837;86;25769;-76
2022/05/07 08:55:28;;;;;;;2.62;2.20;;;;;;;18.06;54.04;101342.50;1652942;86;27758;-77
2022/05/07 08:57:57;;;;;;;5.40;2.45;;;;;;;18.09;53.93;101329.84;1652833;86;25768;-76
2022/05/07 09:00:26;;;;;;;3.40;2.72;;;;;;;18.16;54.12;101330.64;1650588;86;25793;-77
2022/05/07 09:03:00;;;;;;;4.00;1.95;;;;;;;18.19;53.08;101334.28;1654517;85;26649;-76
2022/05/07 09:05:38;;;;;;;2.00;1.80;;;;;;;18.19;53.99;101330.73;1650077;86;26412;-76
2022/05/07 09:08:06;;;;;;;2.80;1.70;;;;;;;18.22;52.32;101337.89;1656165;86;27438;-78
2022/05/07 09:10:36;;;;;;;3.05;1.77;;;;;;;18.08;53.46;101337.69;1654557;86;25989;-78
2022/05/07 09:13:15;;;;;;;3.33;1.90;;;;;;;18.10;53.38;101342.88;1644874;86;25883;-77
2022/05/07 09:15:56;;;;;;;4.35;2.85;;;;;;;18.12;53.44;101341.63;1653003;84;26366;-77
2022/05/07 09:18:25;;;;;;;2.40;1.75;;;;;;;18.15;53.61;101330.87;1678486;84;25354;-78
2022/05/07 09:21:24;;;;;;;6.05;1.87;;;;;;;18.23;54.00;101327.37;1646890;86;27652;-79
2022/05/07 09:23:31;;;;;;;3.47;1.70;;;;;;;18.22;52.84;101337.89;1623264;86;25889;-78
2022/05/07 09:25:57;;;;;;;4.15;1.60;;;;;;;18.07;52.06;101343.34;1654274;86;26494;-78
2022/05/07 09:28:28;;;;;;;3.08;1.62;;;;;;;17.98;52.08;101345.47;1638860;86;25997;-78
2022/05/07 09:30:57;;;;;;;3.10;2.02;;;;;;;18.01;52.03;101340.95;1655140;86;25847;-78
2022/05/07 09:33:34;;;;;;;4.03;2.10;;;;;;;18.10;52.80;101337.46;1653492;86;27659;-77
2022/05/07 09:36:11;;;;;;;3.55;1.82;;;;;;;18.27;53.43;101337.24;1640349;86;26527;-78
2022/05/07 09:38:38;;;;;;;2.15;1.45;;;;;;;18.44;53.06;101325.68;1649675;86;26590;-77
2022/05/07 09:41:06;;;;;;;4.78;1.57;;;;;;;18.57;53.27;101324.74;1680870;84;25920;-78
2022/05/07 09:43:33;;;;;;;3.15;1.80;;;;;;;18.61;50.86;101326.47;1669805;84;25930;-77
2022/05/07 09:46:00;;;;;;;2.70;2.15;;;;;;;18.57;51.19;101321.19;1669373;85;27499;-78
2022/05/07 09:48:27;;;;;;;3.37;1.35;;;;;;;18.43;50.66;101323.16;1683279;84;26114;-77
2022/05/07 09:50:54;;;;;;;5.83;2.12;;;;;;;18.48;52.76;101321.98;1670157;84;25748;-77
2022/05/07 09:58:51;;;;;;;3.75;1.35;;;;;;;18.80;51.48;101318.16;1664465;86;28316;-77
2022/05/07 10:01:42;;;;;;;2.08;1.52;;;;;;;18.96;52.16;101311.34;1657065;85;26699;-77
2022/05/07 10:04:38;;;;;;;2.92;1.62;;;;;;;19.04;52.27;101305.61;1653294;86;25790;-77
2022/05/07 10:07:36;;;;;;;3.00;1.95;;;;;;;19.20;52.80;101309.91;1625360;86;25911;-77
2022/05/07 10:10:35;;;;;;;3.20;2.10;;;;;;;19.28;51.21;101308.80;1641391;85;25983;-77
2022/05/07 10:13:06;;;;;;;3.65;2.30;;;;;;;19.10;50.86;101312.33;1661562;85;27442;-77
2022/05/07 10:15:33;;;;;;;;;;;;;;;19.12;51.14;101308.02;1649119;86;26016;-78
2022/05/07 10:18:07;;;;;;;4.33;2.00;;;;;;;19.20;51.23;101306.39;1641795;85;26147;-77
2022/05/07 10:20:44;;;;;;;4.10;1.95;;;;;;;19.19;50.37;101298.77;1647551;86;26261;-78
2022/05/07 10:23:17;;;;;;;5.40;1.70;;;;;;;19.20;49.48;101301.77;1650568;86;26270;-78
2022/05/07 10:25:49;;;;;;;3.45;1.98;;;;;;;19.22;49.80;101291.50;1653658;85;28755;-77
2022/05/07 10:28:15;;;;;;;1.90;1.75;;;;;;;19.27;50.53;101292.73;1653118;85;25928;-78
2022/05/07 10:30:54;;;;;;;8.90;2.17;;;;;;;19.34;51.07;101291.62;1652452;85;25873;-77
2022/05/07 10:33:21;;;;;;;5.10;2.62;;;;;;;19.40;50.45;101296.13;1658732;86;26252;-77
2022/05/07 10:35:57;;;;;;;3.15;2.55;;;;;;;19.50;49.61;101294.25;1625529;86;26511;-77
2022/05/07 10:38:38;;;;;;;3.00;2.40;;;;;;;19.52;49.20;101288.89;1651782;86;28116;-78
2022/05/07 10:41:16;;;;;;;3.20;2.22;;;;;;;19.60;49.58;101282.30;1653042;86;25850;-77
2022/05/07 10:44:02;;;;;;;2.77;1.92;;;;;;;19.68;49.59;101291.49;1632271;85;25738;-77
2022/05/07 10:46:43;;;;;;;2.35;2.12;;;;;;;19.71;49.36;101286.45;1653093;86;25960;-77
2022/05/07 10:49:10;;;;;;;4.42;2.70;;;;;;;19.52;48.46;101290.78;1644528;85;25877;-77
2022/05/07 10:51:51;;;;;;;5.15;2.95;;;;;;;19.31;48.82;101287.95;1662072;84;28299;-77
2022/05/07 10:54:24;;;;;;;4.35;3.22;;;;;;;19.26;49.67;101289.18;1642444;86;25839;-76
2022/05/07 10:56:53;;;;;;;;;;;;;;;19.36;49.83;101284.59;1657423;86;25904;-77
2022/05/07 10:59:21;;;;;;;3.33;2.92;;;;;;;19.47;49.47;101286.55;1652706;86;25837;-77
2022/05/07 11:01:49;;;;;;;3.90;3.10;;;;;;;19.50;49.57;101282.03;1641722;85;25836;-78
2022/05/07 11:04:18;;;;;;;4.25;3.20;;;;;;;19.62;49.02;101272.87;1648246;86;27223;-77
2022/05/07 11:06:50;;;;;;;3.37;2.20;;;;;;;19.66;49.25;101278.14;1654988;86;25922;-76
2022/05/07 11:09:23;;;;;;;2.30;2.02;;;;;;;19.65;48.73;101281.91;1662100;86;25803;-77
2022/05/07 11:11:53;;;;;;;2.85;2.58;;;;;;;19.52;47.94;101283.98;1655821;85;26266;-77
2022/05/07 11:14:26;;;;;;;;;;;;;;;19.34;48.14;101280.75;1655309;86;25382;-78
2022/05/07 11:16:53;;;;;;;8.73;3.10;;;;;;;19.25;48.24;101280.71;1636520;87;27830;-78
2022/05/07 11:19:34;;;;;;;7.45;3.50;;;;;;;19.24;48.46;101283.15;1625095;87;26831;-78
2022/05/07 11:22:02;;;;;;;;;;;;;;;19.34;49.08;101275.31;1633324;86;25868;-79
2022/05/07 11:24:33;;;;;;;3.83;3.52;;;;;;;19.56;48.85;101273.79;1659817;84;25914;-77
2022/05/07 11:27:02;;;;;;;4.85;3.75;;;;;;;19.71;49.38;101271.50;1632110;87;25798;-78
2022/05/07 11:29:30;;;;;;;4.35;3.95;;;;;;;19.87;49.17;101265.92;1663071;84;28086;-77
2022/05/07 11:32:07;;;;;;;4.83;3.80;;;;;;;20.03;48.79;101260.36;1650503;86;25820;-77
2022/05/07 11:34:41;;;;;;;4.30;3.42;;;;;;;20.17;48.40;101255.00;1638237;86;25342;-78
2022/05/07 11:37:23;;;;;;;3.15;2.85;;;;;;;20.30;48.77;101262.98;1646157;86;25825;-77
2022/05/07 11:39:55;;;;;;;7.37;2.40;;;;;;;20.43;48.44;101258.69;1657307;86;25401;-77
2022/05/07 11:42:46;;;;;;;3.47;2.72;;;;;;;20.49;49.03;101259.94;1649258;86;27482;-77
2022/05/07 11:45:27;;;;;;;2.98;2.40;;;;;;;20.53;47.94;101247.51;1656797;86;25951;-78
2022/05/07 11:47:56;;;;;;;3.33;2.80;;;;;;;20.61;48.31;101244.45;1645998;86;25920;-78
2022/05/07 11:50:32;;;;;;;4.45;2.30;;;;;;;20.67;48.15;101242.67;1629223;86;26456;-78